Time;durP1;ratioP1;P1;durP2;ratioP2;P2;SDS_P1;SDS_P2;PMS_P1;PMS_P2;Temp;Humidity;BMP_temperature;BMP_pressure;BME280_temperature;BME280_humidity;BME280_pressure;Samples;Min_cycle;Max_cycle;Signal;HPM_P1;HPM_P2
2024/05/02 00:02:07;;;;;;;51.17;30.00;;;;;;;;;;5300015;26;20001;-66
2024/05/02 00:04:32;;;;;;;50.72;28.98;;;;;;;;;;5309200;26;19993;-66
2024/05/02 00:06:58;;;;;;;48.35;29.48;;;;;;;;;;5330877;26;20003;-64
2024/05/02 00:09:24;;;;;;;45.58;29.15;;;;;;;;;;5300303;27;19998;-66
2024/05/02 00:11:49;;;;;;;48.53;28.95;;;;;;;;;;5326242;26;20075;-66
2024/05/02 00:14:15;;;;;;;52.20;29.77;;;;;;;;;;5315510;26;20053;-66
2024/05/02 00:16:40;;;;;;;46.92;28.50;;;;;;;;;;5299840;26;20491;-66
2024/05/02 00:19:06;;;;;;;43.72;26.65;;;;;;;;;;5297470;26;20006;-66
2024/05/02 00:21:31;;;;;;;41.53;26.65;;;;;;;;;;5300364;26;20577;-66
2024/05/02 00:23:56;;;;;;;45.60;26.23;;;;;;;;;;5311619;26;20112;-66
2024/05/02 00:26:22;;;;;;;38.22;23.75;;;;;;;;;;5299535;26;20009;-66
2024/05/02 00:28:47;;;;;;;36.25;22.70;;;;;;;;;;5300493;26;20041;-66
2024/05/02 00:31:16;;;;;;;38.10;23.98;;;;;;;;;;5296956;26;20002;-66
2024/05/02 00:33:41;;;;;;;36.60;23.25;;;;;;;;;;5300275;26;20080;-66
2024/05/02 00:36:07;;;;;;;39.85;25.25;;;;;;;;;;5298974;26;20339;-66
2024/05/02 00:38:32;;;;;;;42.58;25.38;;;;;;;;;;5299645;26;19998;-66
2024/05/02 00:40:58;;;;;;;43.58;24.90;;;;;;;;;;5324064;26;19992;-66
2024/05/02 00:43:23;;;;;;;43.70;24.50;;;;;;;;;;5323079;26;20002;-66
2024/05/02 00:45:50;;;;;;;45.53;25.50;;;;;;;;;;5319732;26;20456;-66
2024/05/02 00:48:16;;;;;;;42.45;25.58;;;;;;;;;;5332762;26;20008;-66
2024/05/02 00:50:41;;;;;;;45.75;28.65;;;;;;;;;;5317522;26;20033;-66
2024/05/02 00:53:06;;;;;;;48.60;31.50;;;;;;;;;;5295705;26;20009;-66
2024/05/02 00:55:33;;;;;;;55.88;34.05;;;;;;;;;;5310803;26;20048;-66
2024/05/02 00:57:59;;;;;;;59.55;37.25;;;;;;;;;;5328728;26;20525;-65
2024/05/02 01:00:24;;;;;;;80.15;44.40;;;;;;;;;;5327536;26;20029;-65
2024/05/02 01:02:50;;;;;;;87.82;47.08;;;;;;;;;;5314158;26;20083;-66
2024/05/02 01:05:15;;;;;;;79.22;44.88;;;;;;;;;;5290516;27;19999;-66
2024/05/02 01:07:45;;;;;;;94.82;52.70;;;;;;;;;;5289438;27;20005;-66
2024/05/02 01:10:10;;;;;;;95.38;52.42;;;;;;;;;;5316444;26;19997;-66
2024/05/02 01:12:39;;;;;;;100.70;51.00;;;;;;;;;;5285625;26;19993;-66
2024/05/02 01:15:04;;;;;;;94.93;52.15;;;;;;;;;;5330428;26;20485;-66
2024/05/02 01:17:30;;;;;;;93.95;53.80;;;;;;;;;;5310985;26;20002;-66
2024/05/02 01:19:55;;;;;;;117.85;67.30;;;;;;;;;;5296163;26;20337;-66
2024/05/02 01:22:21;;;;;;;115.05;60.65;;;;;;;;;;5297553;26;20072;-65
2024/05/02 01:24:46;;;;;;;105.80;56.33;;;;;;;;;;5298936;26;19994;-66
2024/05/02 01:27:11;;;;;;;124.10;69.72;;;;;;;;;;5282475;27;20013;-66
2024/05/02 01:29:37;;;;;;;123.47;65.28;;;;;;;;;;5319493;26;20729;-66
2024/05/02 01:32:03;;;;;;;129.40;67.75;;;;;;;;;;5332469;26;20170;-66
2024/05/02 01:34:28;;;;;;;132.48;70.05;;;;;;;;;;5324373;26;20659;-66
2024/05/02 01:36:54;;;;;;;136.07;72.15;;;;;;;;;;5298746;26;20444;-66
2024/05/02 01:39:19;;;;;;;136.68;71.15;;;;;;;;;;5298958;26;20455;-66
2024/05/02 01:41:44;;;;;;;133.70;71.18;;;;;;;;;;5322838;26;20027;-66
2024/05/02 01:44:10;;;;;;;143.93;75.22;;;;;;;;;;5318179;26;19997;-66
2024/05/02 01:46:35;;;;;;;147.70;71.85;;;;;;;;;;5322689;26;20497;-66
2024/05/02 01:49:01;;;;;;;136.02;72.15;;;;;;;;;;5330827;26;20017;-65
2024/05/02 01:51:26;;;;;;;140.55;72.05;;;;;;;;;;5299348;27;20001;-66
2024/05/02 01:53:51;;;;;;;134.55;71.35;;;;;;;;;;5299683;26;20058;-65
2024/05/02 01:56:17;;;;;;;136.38;68.90;;;;;;;;;;5312626;26;20503;-66
2024/05/02 01:58:42;;;;;;;132.93;67.47;;;;;;;;;;5333739;26;20015;-66
2024/05/02 02:01:07;;;;;;;130.13;67.95;;;;;;;;;;5330904;26;19999;-66
2024/05/02 02:03:33;;;;;;;132.68;68.70;;;;;;;;;;5300365;26;19998;-66
2024/05/02 02:05:58;;;;;;;130.60;67.00;;;;;;;;;;5298669;26;20475;-66
2024/05/02 02:08:23;;;;;;;142.85;70.57;;;;;;;;;;5298358;26;20009;-66
2024/05/02 02:10:49;;;;;;;134.00;66.28;;;;;;;;;;5319927;26;20056;-66
2024/05/02 02:13:14;;;;;;;129.00;63.15;;;;;;;;;;5297688;26;20549;-66
2024/05/02 02:15:39;;;;;;;116.43;61.25;;;;;;;;;;5300575;26;20771;-65
2024/05/02 02:18:08;;;;;;;130.80;67.40;;;;;;;;;;5300043;26;20040;-66
2024/05/02 02:20:33;;;;;;;122.35;64.95;;;;;;;;;;5310355;26;19998;-66
2024/05/02 02:22:59;;;;;;;124.13;65.80;;;;;;;;;;5298350;26;20017;-66
2024/05/02 02:25:24;;;;;;;127.28;64.47;;;;;;;;;;5296242;27;20030;-66
2024/05/02 02:27:49;;;;;;;127.80;62.53;;;;;;;;;;5318628;26;20001;-65
2024/05/02 02:30:16;;;;;;;121.50;64.93;;;;;;;;;;5298527;26;20084;-66
2024/05/02 02:32:42;;;;;;;115.90;57.67;;;;;;;;;;5309848;26;20025;-66
2024/05/02 02:35:08;;;;;;;108.25;56.85;;;;;;;;;;5297749;26;20065;-66
2024/05/02 02:37:33;;;;;;;107.05;55.50;;;;;;;;;;5297736;26;20436;-66
2024/05/02 02:39:59;;;;;;;96.72;53.78;;;;;;;;;;5290198;26;20341;-65
2024/05/02 02:42:24;;;;;;;108.60;54.72;;;;;;;;;;5297901;27;20025;-66
2024/05/02 02:44:49;;;;;;;97.13;54.60;;;;;;;;;;5296534;26;20112;-66
2024/05/02 02:47:15;;;;;;;98.68;53.65;;;;;;;;;;5297839;26;19993;-66
2024/05/02 02:49:40;;;;;;;103.97;55.33;;;;;;;;;;5297868;26;20013;-66
2024/05/02 02:52:05;;;;;;;100.85;54.53;;;;;;;;;;5292017;26;20005;-66
2024/05/02 02:54:31;;;;;;;100.78;55.17;;;;;;;;;;5297201;27;20016;-66
2024/05/02 02:56:56;;;;;;;101.50;55.17;;;;;;;;;;5296880;26;20479;-66
2024/05/02 02:59:21;;;;;;;98.53;53.75;;;;;;;;;;5296174;26;19998;-66
2024/05/02 03:01:47;;;;;;;102.97;54.05;;;;;;;;;;5299233;26;20001;-66
2024/05/02 03:04:14;;;;;;;103.30;56.00;;;;;;;;;;5296207;26;20084;-66
2024/05/02 03:06:40;;;;;;;97.10;51.03;;;;;;;;;;5305936;26;20037;-66
2024/05/02 03:09:05;;;;;;;108.53;56.45;;;;;;;;;;5299974;26;19997;-66
2024/05/02 03:11:31;;;;;;;101.82;54.20;;;;;;;;;;5300524;26;19998;-66
2024/05/02 03:13:56;;;;;;;112.18;57.92;;;;;;;;;;5300822;26;20029;-65
2024/05/02 03:16:21;;;;;;;107.25;56.40;;;;;;;;;;5301209;26;20071;-66
2024/05/02 03:18:47;;;;;;;98.00;54.65;;;;;;;;;;5298718;27;20013;-66
2024/05/02 03:21:12;;;;;;;93.25;50.70;;;;;;;;;;5300724;26;20431;-66
2024/05/02 03:23:41;;;;;;;105.78;52.75;;;;;;;;;;5303266;26;20016;-66
2024/05/02 03:26:09;;;;;;;89.22;51.00;;;;;;;;;;5311818;26;19992;-66
2024/05/02 03:28:34;;;;;;;100.10;51.75;;;;;;;;;;5324541;26;20002;-66
2024/05/02 03:31:00;;;;;;;99.15;50.65;;;;;;;;;;5315865;26;20096;-65
2024/05/02 03:33:25;;;;;;;102.72;51.95;;;;;;;;;;5300110;27;20016;-66
2024/05/02 03:35:50;;;;;;;88.03;48.53;;;;;;;;;;5291496;26;20110;-66
2024/05/02 03:38:16;;;;;;;88.20;47.95;;;;;;;;;;5299017;27;20014;-66
2024/05/02 03:40:41;;;;;;;87.45;46.97;;;;;;;;;;5309934;26;20016;-66
2024/05/02 03:43:06;;;;;;;100.32;51.28;;;;;;;;;;5332892;26;20011;-66
2024/05/02 03:45:33;;;;;;;95.38;50.75;;;;;;;;;;5296635;26;20001;-66
2024/05/02 03:47:58;;;;;;;89.97;49.05;;;;;;;;;;5282066;26;20003;-66
2024/05/02 03:50:24;;;;;;;95.30;51.33;;;;;;;;;;5301074;26;20034;-66
2024/05/02 03:52:49;;;;;;;98.93;50.40;;;;;;;;;;5324426;26;20024;-65
2024/05/02 03:55:15;;;;;;;106.55;54.60;;;;;;;;;;5334722;26;20524;-66
2024/05/02 03:57:40;;;;;;;113.07;52.60;;;;;;;;;;5334529;26;20043;-65
2024/05/02 04:00:06;;;;;;;112.97;53.20;;;;;;;;;;5309723;26;20014;-66
2024/05/02 04:02:32;;;;;;;110.85;51.97;;;;;;;;;;5297254;26;20021;-66
2024/05/02 04:04:57;;;;;;;144.73;54.15;;;;;;;;;;5300454;26;20038;-66
2024/05/02 04:07:22;;;;;;;262.48;55.35;;;;;;;;;;5300156;26;20507;-66
2024/05/02 04:09:47;;;;;;;259.35;57.05;;;;;;;;;;5297425;26;19999;-66
2024/05/02 04:12:14;;;;;;;258.88;52.45;;;;;;;;;;5299185;26;19997;-66
2024/05/02 04:14:40;;;;;;;195.90;52.22;;;;;;;;;;5322449;26;20078;-66
2024/05/02 04:17:05;;;;;;;143.90;50.78;;;;;;;;;;5318698;26;19998;-66
2024/05/02 04:19:30;;;;;;;118.03;51.40;;;;;;;;;;5298859;26;20250;-66
2024/05/02 04:21:56;;;;;;;147.35;51.53;;;;;;;;;;5299571;27;20008;-66
2024/05/02 04:24:21;;;;;;;125.53;52.42;;;;;;;;;;5305061;26;20005;-66
2024/05/02 04:26:46;;;;;;;125.53;52.72;;;;;;;;;;5311527;26;20332;-66
2024/05/02 04:29:12;;;;;;;125.15;49.60;;;;;;;;;;5299695;26;20332;-66
2024/05/02 04:31:37;;;;;;;221.27;53.72;;;;;;;;;;5300021;26;20541;-67
2024/05/02 04:34:03;;;;;;;222.20;52.67;;;;;;;;;;5306742;26;20835;-65
2024/05/02 04:36:29;;;;;;;196.63;53.28;;;;;;;;;;5300224;26;19997;-66
2024/05/02 04:38:55;;;;;;;275.17;54.60;;;;;;;;;;5299327;26;20016;-66
2024/05/02 04:41:20;;;;;;;233.00;55.17;;;;;;;;;;5298397;26;20038;-66
2024/05/02 04:43:46;;;;;;;279.98;53.55;;;;;;;;;;5299480;26;20016;-66
2024/05/02 04:46:11;;;;;;;209.55;58.70;;;;;;;;;;5298699;26;20073;-66
2024/05/02 04:48:37;;;;;;;141.35;51.60;;;;;;;;;;5293979;26;20001;-64
2024/05/02 04:51:02;;;;;;;186.60;52.40;;;;;;;;;;5299554;26;20005;-65
2024/05/02 04:53:28;;;;;;;181.85;56.88;;;;;;;;;;5297992;26;20002;-66
2024/05/02 04:55:53;;;;;;;236.05;56.30;;;;;;;;;;5299419;26;20022;-66
2024/05/02 04:58:19;;;;;;;163.82;54.88;;;;;;;;;;5299381;26;21310;-66
2024/05/02 05:00:44;;;;;;;311.63;58.03;;;;;;;;;;5336124;26;20069;-66
2024/05/02 05:03:11;;;;;;;233.02;52.63;;;;;;;;;;5333591;26;20755;-66
2024/05/02 05:05:36;;;;;;;221.52;53.20;;;;;;;;;;5309810;26;20054;-66
2024/05/02 05:08:02;;;;;;;236.85;56.15;;;;;;;;;;5298674;26;20069;-66
2024/05/02 05:10:27;;;;;;;186.68;54.67;;;;;;;;;;5300079;26;20012;-66
2024/05/02 05:12:53;;;;;;;127.95;52.70;;;;;;;;;;5309064;26;20069;-66
2024/05/02 05:15:20;;;;;;;105.75;52.50;;;;;;;;;;5299787;26;20538;-66
2024/05/02 05:17:45;;;;;;;143.13;56.88;;;;;;;;;;5298752;26;20016;-66
2024/05/02 05:20:11;;;;;;;126.43;58.80;;;;;;;;;;5299464;26;20328;-66
2024/05/02 05:22:37;;;;;;;113.10;59.47;;;;;;;;;;5296238;26;20443;-65
2024/05/02 05:25:03;;;;;;;171.40;63.42;;;;;;;;;;5306868;26;20013;-65
2024/05/02 05:27:29;;;;;;;166.43;70.93;;;;;;;;;;5298097;26;20007;-65
2024/05/02 05:29:54;;;;;;;193.15;76.93;;;;;;;;;;5316743;26;20001;-66
2024/05/02 05:32:19;;;;;;;182.95;73.57;;;;;;;;;;5300681;26;19997;-66
2024/05/02 05:34:45;;;;;;;193.38;78.20;;;;;;;;;;5307827;26;19997;-66
2024/05/02 05:37:10;;;;;;;194.88;78.50;;;;;;;;;;5332477;26;20520;-66
2024/05/02 05:39:36;;;;;;;212.52;80.78;;;;;;;;;;5333924;26;19996;-66
2024/05/02 05:42:01;;;;;;;159.75;76.32;;;;;;;;;;5302927;26;20002;-66
2024/05/02 05:44:27;;;;;;;158.55;77.78;;;;;;;;;;5298573;26;20033;-66
2024/05/02 05:46:52;;;;;;;168.57;81.32;;;;;;;;;;5309105;26;19996;-65
2024/05/02 05:49:18;;;;;;;165.30;81.05;;;;;;;;;;5331328;26;20011;-66
2024/05/02 05:51:43;;;;;;;171.60;83.40;;;;;;;;;;5332490;26;20082;-66
2024/05/02 05:54:08;;;;;;;175.75;83.03;;;;;;;;;;5301522;26;20444;-66
2024/05/02 05:56:34;;;;;;;176.90;90.50;;;;;;;;;;5297129;26;20076;-65
2024/05/02 05:58:59;;;;;;;167.57;82.75;;;;;;;;;;5316270;26;20001;-66
2024/05/02 06:01:24;;;;;;;165.80;83.63;;;;;;;;;;5323325;26;20005;-66
2024/05/02 06:03:50;;;;;;;165.88;81.03;;;;;;;;;;5291002;27;20005;-66
2024/05/02 06:06:16;;;;;;;169.65;83.90;;;;;;;;;;5298959;27;20345;-66
2024/05/02 06:08:41;;;;;;;165.18;81.13;;;;;;;;;;5283921;26;20017;-66
2024/05/02 06:11:06;;;;;;;172.57;84.25;;;;;;;;;;5297173;26;19998;-66
2024/05/02 06:13:32;;;;;;;175.18;82.28;;;;;;;;;;5305908;26;20000;-66
2024/05/02 06:15:57;;;;;;;184.77;90.50;;;;;;;;;;5332527;26;20016;-66
2024/05/02 06:18:22;;;;;;;181.70;82.20;;;;;;;;;;5315728;26;20012;-66
2024/05/02 06:20:48;;;;;;;199.90;88.40;;;;;;;;;;5302531;26;20566;-65
2024/05/02 06:23:13;;;;;;;196.52;90.00;;;;;;;;;;5295260;27;20001;-66
2024/05/02 06:25:38;;;;;;;189.98;85.50;;;;;;;;;;5278048;27;20013;-66
2024/05/02 06:28:04;;;;;;;183.65;85.97;;;;;;;;;;5278799;27;20006;-66
2024/05/02 06:30:29;;;;;;;188.52;87.90;;;;;;;;;;5331661;26;20017;-66
2024/05/02 06:32:55;;;;;;;195.13;87.22;;;;;;;;;;5322540;26;20478;-65
2024/05/02 06:35:23;;;;;;;184.55;83.13;;;;;;;;;;5314278;26;20328;-66
2024/05/02 06:37:48;;;;;;;181.05;83.75;;;;;;;;;;5267219;27;20573;-65
2024/05/02 06:40:14;;;;;;;169.32;79.85;;;;;;;;;;5266759;26;20109;-65
2024/05/02 06:42:40;;;;;;;166.88;80.65;;;;;;;;;;5295486;26;20498;-65
2024/05/02 06:45:05;;;;;;;157.88;76.70;;;;;;;;;;5278901;26;20083;-66
2024/05/02 06:47:30;;;;;;;149.95;73.93;;;;;;;;;;5291414;26;20030;-64
2024/05/02 06:49:56;;;;;;;143.48;73.00;;;;;;;;;;5279809;26;20017;-65
2024/05/02 06:52:21;;;;;;;151.45;76.65;;;;;;;;;;5262542;27;20084;-65
2024/05/02 06:54:46;;;;;;;149.88;73.28;;;;;;;;;;5261859;27;19998;-66
2024/05/02 06:57:12;;;;;;;144.88;75.60;;;;;;;;;;5257335;26;20570;-65
2024/05/02 06:59:37;;;;;;;148.38;76.68;;;;;;;;;;5290613;26;20580;-65
2024/05/02 07:02:03;;;;;;;148.90;73.45;;;;;;;;;;5279916;26;20005;-65
2024/05/02 07:04:28;;;;;;;144.63;71.63;;;;;;;;;;5290582;26;19999;-65
2024/05/02 07:06:53;;;;;;;144.00;74.78;;;;;;;;;;5262912;27;20463;-65
2024/05/02 07:09:19;;;;;;;139.48;71.47;;;;;;;;;;5296795;26;20068;-66
2024/05/02 07:11:44;;;;;;;128.82;69.35;;;;;;;;;;5269008;26;19999;-65
2024/05/02 07:14:09;;;;;;;117.55;61.10;;;;;;;;;;5281155;26;20038;-66
2024/05/02 07:16:35;;;;;;;118.13;63.80;;;;;;;;;;5254175;26;20017;-65
2024/05/02 07:19:01;;;;;;;114.25;60.47;;;;;;;;;;5255549;26;20080;-64
2024/05/02 07:21:27;;;;;;;125.93;62.38;;;;;;;;;;5260091;27;20006;-65
2024/05/02 07:23:52;;;;;;;119.43;62.50;;;;;;;;;;5258641;26;19999;-65
2024/05/02 07:26:17;;;;;;;114.10;59.22;;;;;;;;;;5256558;26;20084;-65
2024/05/02 07:28:43;;;;;;;112.78;59.40;;;;;;;;;;5272507;26;20014;-65
2024/05/02 07:31:08;;;;;;;116.90;59.30;;;;;;;;;;5295977;26;19998;-65
2024/05/02 07:33:33;;;;;;;109.75;53.63;;;;;;;;;;5296330;26;20548;-66
2024/05/02 07:35:59;;;;;;;96.18;51.17;;;;;;;;;;5323782;26;20017;-65
2024/05/02 07:38:24;;;;;;;89.50;50.67;;;;;;;;;;5327733;26;20001;-65
2024/05/02 07:40:49;;;;;;;90.65;48.15;;;;;;;;;;5326597;26;20005;-65
2024/05/02 07:43:16;;;;;;;86.25;46.88;;;;;;;;;;5322657;26;19997;-66
2024/05/02 07:45:41;;;;;;;86.65;46.35;;;;;;;;;;5318326;26;20001;-65
2024/05/02 07:48:08;;;;;;;79.25;42.10;;;;;;;;;;5332379;26;19997;-66
2024/05/02 07:50:34;;;;;;;75.03;41.95;;;;;;;;;;5333863;26;20075;-65
2024/05/02 07:53:03;;;;;;;86.82;43.92;;;;;;;;;;5324112;26;19997;-66
2024/05/02 07:55:28;;;;;;;83.95;44.80;;;;;;;;;;5330758;26;20001;-65
2024/05/02 07:57:54;;;;;;;88.20;46.65;;;;;;;;;;5334318;26;19997;-65
2024/05/02 08:00:19;;;;;;;84.07;45.05;;;;;;;;;;5334128;26;20005;-66
2024/05/02 08:02:44;;;;;;;78.53;42.53;;;;;;;;;;5338415;26;20000;-65
2024/05/02 08:05:09;;;;;;;85.07;45.40;;;;;;;;;;5334966;26;20012;-65
2024/05/02 08:07:35;;;;;;;83.93;44.70;;;;;;;;;;5333472;26;20005;-65
2024/05/02 08:10:01;;;;;;;80.70;38.60;;;;;;;;;;5331532;26;20536;-65
2024/05/02 08:12:28;;;;;;;76.93;41.80;;;;;;;;;;5340209;26;19997;-65
2024/05/02 08:14:54;;;;;;;72.90;39.40;;;;;;;;;;5333859;26;20001;-66
2024/05/02 08:17:19;;;;;;;72.35;39.53;;;;;;;;;;5334224;26;19993;-65
2024/05/02 08:19:45;;;;;;;70.95;35.95;;;;;;;;;;5332992;26;20061;-65
2024/05/02 08:22:10;;;;;;;71.30;37.88;;;;;;;;;;5329975;26;20000;-66
2024/05/02 08:24:35;;;;;;;74.95;42.13;;;;;;;;;;5327431;26;20643;-65
2024/05/02 08:27:01;;;;;;;76.47;43.13;;;;;;;;;;5329228;26;20075;-65
2024/05/02 08:29:26;;;;;;;71.70;38.47;;;;;;;;;;5341782;26;20005;-66
2024/05/02 08:31:52;;;;;;;74.22;41.92;;;;;;;;;;5334339;26;20012;-66
2024/05/02 08:34:18;;;;;;;74.25;39.75;;;;;;;;;;5339091;26;20504;-65
2024/05/02 08:36:44;;;;;;;78.93;40.88;;;;;;;;;;5334648;26;20496;-65
2024/05/02 08:39:09;;;;;;;74.72;36.47;;;;;;;;;;5333519;26;20040;-66
2024/05/02 08:41:34;;;;;;;71.57;37.85;;;;;;;;;;5333002;26;20011;-66
2024/05/02 08:44:01;;;;;;;77.00;40.35;;;;;;;;;;5333801;26;20078;-65
2024/05/02 08:46:29;;;;;;;72.75;37.45;;;;;;;;;;5326958;26;20001;-65
2024/05/02 08:48:55;;;;;;;80.57;42.38;;;;;;;;;;5304765;26;19998;-66
2024/05/02 08:51:22;;;;;;;87.88;43.58;;;;;;;;;;5299925;26;20002;-66
2024/05/02 08:53:47;;;;;;;83.13;44.05;;;;;;;;;;5299349;26;20510;-65
2024/05/02 08:56:13;;;;;;;96.15;47.58;;;;;;;;;;5298659;26;20013;-66
2024/05/02 08:58:43;;;;;;;102.30;49.47;;;;;;;;;;5294542;26;20030;-65
2024/05/02 09:01:10;;;;;;;115.68;51.38;;;;;;;;;;5325009;26;20001;-65
2024/05/02 09:03:35;;;;;;;120.60;54.05;;;;;;;;;;5298718;26;20001;-66
2024/05/02 09:06:02;;;;;;;121.53;53.17;;;;;;;;;;5298062;27;20013;-65
2024/05/02 09:08:27;;;;;;;116.43;51.88;;;;;;;;;;5296157;26;19993;-65
2024/05/02 09:10:53;;;;;;;121.20;48.55;;;;;;;;;;5302474;26;20371;-65
2024/05/02 09:13:19;;;;;;;120.15;47.95;;;;;;;;;;5332925;26;20007;-65
2024/05/02 09:15:44;;;;;;;108.70;47.88;;;;;;;;;;5329528;26;20005;-65
2024/05/02 09:18:10;;;;;;;104.50;45.88;;;;;;;;;;5332149;26;20243;-65
2024/05/02 09:20:35;;;;;;;95.45;42.80;;;;;;;;;;5311053;26;19997;-65
2024/05/02 09:23:11;;;;;;;90.75;42.28;;;;;;;;;;5299932;26;20016;-65
2024/05/02 09:25:37;;;;;;;112.35;44.80;;;;;;;;;;5301117;26;19998;-65
2024/05/02 09:28:04;;;;;;;101.78;46.42;;;;;;;;;;5299233;26;19997;-66
2024/05/02 09:30:31;;;;;;;104.65;45.08;;;;;;;;;;5314173;26;20012;-66
2024/05/02 09:32:57;;;;;;;101.03;44.72;;;;;;;;;;5336429;26;20012;-65
2024/05/02 09:35:22;;;;;;;116.43;46.00;;;;;;;;;;5340626;26;20074;-65
2024/05/02 09:37:56;;;;;;;109.85;45.10;;;;;;;;;;5318126;26;20029;-66
2024/05/02 09:40:24;;;;;;;116.00;44.88;;;;;;;;;;5312419;26;20005;-66
2024/05/02 09:42:54;;;;;;;137.15;50.67;;;;;;;;;;5284751;27;20079;-66
2024/05/02 09:45:30;;;;;;;131.90;52.33;;;;;;;;;;5292578;26;19998;-66
2024/05/02 09:48:04;;;;;;;139.05;56.00;;;;;;;;;;5299067;26;19998;-66
2024/05/02 09:50:33;;;;;;;137.93;55.70;;;;;;;;;;5297864;26;20015;-66
2024/05/02 09:52:59;;;;;;;138.75;53.85;;;;;;;;;;5298738;26;20016;-66
2024/05/02 09:55:25;;;;;;;137.85;58.40;;;;;;;;;;5296916;27;20001;-66
2024/05/02 09:57:51;;;;;;;132.23;49.92;;;;;;;;;;5299338;26;20065;-66
2024/05/02 10:00:17;;;;;;;130.18;49.70;;;;;;;;;;5297936;26;19993;-66
2024/05/02 10:02:45;;;;;;;140.07;49.22;;;;;;;;;;5299280;26;20035;-66
2024/05/02 10:05:13;;;;;;;131.60;49.75;;;;;;;;;;5294890;26;19997;-65
2024/05/02 10:07:39;;;;;;;121.03;43.60;;;;;;;;;;5262662;27;20006;-65
2024/05/02 10:10:11;;;;;;;108.13;43.25;;;;;;;;;;5293326;26;20002;-65
2024/05/02 10:12:55;;;;;;;102.05;43.83;;;;;;;;;;5309794;26;20016;-66
2024/05/02 10:15:31;;;;;;;94.28;41.80;;;;;;;;;;5291286;27;20012;-66
2024/05/02 10:17:56;;;;;;;82.85;40.13;;;;;;;;;;5285291;27;20053;-66
2024/05/02 10:20:24;;;;;;;82.50;36.85;;;;;;;;;;5297909;26;20069;-66
2024/05/02 10:22:49;;;;;;;86.70;37.13;;;;;;;;;;5276487;26;19997;-66
2024/05/02 10:25:28;;;;;;;92.65;37.85;;;;;;;;;;5296853;27;19998;-66
2024/05/02 10:27:56;;;;;;;73.60;33.88;;;;;;;;;;5285372;27;20016;-65
2024/05/02 10:30:22;;;;;;;73.78;31.17;;;;;;;;;;5313678;26;20048;-65
2024/05/02 10:32:47;;;;;;;69.50;31.70;;;;;;;;;;5285666;26;20020;-65
2024/05/02 10:35:14;;;;;;;68.97;32.05;;;;;;;;;;5300637;26;20041;-68
2024/05/02 10:37:40;;;;;;;73.70;31.90;;;;;;;;;;5301528;26;19997;-65
2024/05/02 10:40:08;;;;;;;68.38;30.75;;;;;;;;;;5279851;27;20069;-66
2024/05/02 10:42:34;;;;;;;66.95;31.13;;;;;;;;;;5298310;27;20068;-66
2024/05/02 10:45:04;;;;;;;59.90;28.50;;;;;;;;;;5297268;26;20027;-65
2024/05/02 10:47:30;;;;;;;56.25;27.45;;;;;;;;;;5299426;26;20009;-66
2024/05/02 10:49:57;;;;;;;58.28;26.70;;;;;;;;;;5309435;26;20029;-65
2024/05/02 10:52:22;;;;;;;47.85;24.20;;;;;;;;;;5295331;26;19998;-65
2024/05/02 10:54:48;;;;;;;51.40;24.48;;;;;;;;;;5297892;27;20427;-65
2024/05/02 10:57:14;;;;;;;53.42;25.63;;;;;;;;;;5297936;26;20012;-66
2024/05/02 10:59:40;;;;;;;52.00;24.77;;;;;;;;;;5297337;26;20005;-65
2024/05/02 11:02:05;;;;;;;50.22;24.55;;;;;;;;;;5295584;26;19994;-66
2024/05/02 11:04:30;;;;;;;47.97;21.55;;;;;;;;;;5310492;26;21032;-65
2024/05/02 11:06:56;;;;;;;47.55;22.40;;;;;;;;;;5309737;26;20001;-65
2024/05/02 11:09:21;;;;;;;48.95;23.42;;;;;;;;;;5281818;27;19998;-66
2024/05/02 11:11:51;;;;;;;45.97;21.55;;;;;;;;;;5296993;26;20033;-65
2024/05/02 11:14:16;;;;;;;37.13;20.45;;;;;;;;;;5297145;26;20014;-66
2024/05/02 11:16:42;;;;;;;33.85;18.50;;;;;;;;;;5308365;26;20094;-65
2024/05/02 11:19:10;;;;;;;31.42;16.40;;;;;;;;;;5292899;26;20452;-65
2024/05/02 11:21:35;;;;;;;30.55;15.93;;;;;;;;;;5297949;27;19998;-65
2024/05/02 11:24:04;;;;;;;26.75;14.77;;;;;;;;;;5295566;26;20109;-65
2024/05/02 11:26:30;;;;;;;25.50;13.82;;;;;;;;;;5293492;26;20362;-65
2024/05/02 11:28:56;;;;;;;23.27;13.82;;;;;;;;;;5300121;27;20017;-66
2024/05/02 11:31:22;;;;;;;26.02;12.82;;;;;;;;;;5300126;26;20001;-66
2024/05/02 11:33:48;;;;;;;21.63;12.70;;;;;;;;;;5296504;26;20012;-66
2024/05/02 11:36:14;;;;;;;18.90;12.20;;;;;;;;;;5281008;27;20001;-65
2024/05/02 11:38:39;;;;;;;18.70;11.18;;;;;;;;;;5302248;26;20078;-65
2024/05/02 11:41:05;;;;;;;18.30;11.23;;;;;;;;;;5302817;26;19997;-65
2024/05/02 11:43:31;;;;;;;17.25;10.23;;;;;;;;;;5298042;26;20009;-66
2024/05/02 11:45:57;;;;;;;29.55;10.30;;;;;;;;;;5295644;26;20006;-65
2024/05/02 11:48:22;;;;;;;13.15;7.72;;;;;;;;;;5295612;26;19994;-66
2024/05/02 11:50:48;;;;;;;12.18;8.50;;;;;;;;;;5299385;26;20837;-65
2024/05/02 11:53:13;;;;;;;12.50;8.30;;;;;;;;;;5279693;27;20016;-65
2024/05/02 11:55:39;;;;;;;15.68;8.02;;;;;;;;;;5300302;26;20551;-65
2024/05/02 11:58:04;;;;;;;11.30;8.25;;;;;;;;;;5299647;26;19994;-65
2024/05/02 12:00:30;;;;;;;12.32;8.40;;;;;;;;;;5298845;26;19998;-65
2024/05/02 12:02:55;;;;;;;11.70;8.00;;;;;;;;;;5309071;26;20016;-66
2024/05/02 12:05:21;;;;;;;12.45;7.82;;;;;;;;;;5296437;26;20566;-65
2024/05/02 12:07:46;;;;;;;11.68;8.05;;;;;;;;;;5293133;26;20014;-66
2024/05/02 12:10:11;;;;;;;10.30;7.30;;;;;;;;;;5290573;26;20013;-66
2024/05/02 12:12:37;;;;;;;10.43;7.38;;;;;;;;;;5296341;26;20008;-65
2024/05/02 12:15:02;;;;;;;9.73;7.00;;;;;;;;;;5295845;26;20016;-66
2024/05/02 12:17:28;;;;;;;14.65;7.03;;;;;;;;;;5293093;26;19998;-66
2024/05/02 12:19:53;;;;;;;9.63;6.68;;;;;;;;;;5284111;26;20045;-65
2024/05/02 12:22:18;;;;;;;10.30;6.90;;;;;;;;;;5298332;26;20033;-66
2024/05/02 12:24:44;;;;;;;8.85;6.32;;;;;;;;;;5295569;26;20009;-65
2024/05/02 12:27:09;;;;;;;10.05;6.47;;;;;;;;;;5296590;26;20013;-66
2024/05/02 12:29:35;;;;;;;7.55;6.40;;;;;;;;;;5294192;26;20013;-65
2024/05/02 12:32:01;;;;;;;7.88;5.85;;;;;;;;;;5286188;26;20024;-66
2024/05/02 12:34:26;;;;;;;8.15;5.68;;;;;;;;;;5297740;26;20527;-66
2024/05/02 12:36:52;;;;;;;9.77;6.30;;;;;;;;;;5300217;26;20518;-66
2024/05/02 12:39:18;;;;;;;7.55;5.78;;;;;;;;;;5283233;27;20345;-66
2024/05/02 12:41:43;;;;;;;6.90;5.80;;;;;;;;;;5297267;26;20309;-66
2024/05/02 12:44:09;;;;;;;7.85;6.47;;;;;;;;;;5298094;26;20415;-66
2024/05/02 12:46:35;;;;;;;9.10;5.82;;;;;;;;;;5317651;26;20012;-66
2024/05/02 12:49:08;;;;;;;7.63;6.35;;;;;;;;;;5297537;27;20013;-65
2024/05/02 12:51:34;;;;;;;7.38;5.90;;;;;;;;;;5296824;27;19994;-65
2024/05/02 12:53:59;;;;;;;8.88;6.03;;;;;;;;;;5296130;26;20017;-66
2024/05/02 12:56:25;;;;;;;7.35;5.97;;;;;;;;;;5297819;26;19998;-66
2024/05/02 12:58:50;;;;;;;8.23;6.63;;;;;;;;;;5293876;26;20433;-66
2024/05/02 13:01:15;;;;;;;9.18;6.45;;;;;;;;;;5293378;26;20076;-64
2024/05/02 13:03:41;;;;;;;9.93;6.68;;;;;;;;;;5293503;26;20026;-65
2024/05/02 13:06:06;;;;;;;8.63;6.50;;;;;;;;;;5298293;26;20005;-64
2024/05/02 13:08:31;;;;;;;10.32;6.90;;;;;;;;;;5293628;26;20055;-66
2024/05/02 13:10:57;;;;;;;11.32;7.47;;;;;;;;;;5296585;26;20030;-65
2024/05/02 13:13:22;;;;;;;10.90;8.40;;;;;;;;;;5295930;26;19997;-65
2024/05/02 13:15:49;;;;;;;10.88;8.27;;;;;;;;;;5302521;26;20593;-65
2024/05/02 13:18:14;;;;;;;11.57;8.85;;;;;;;;;;5295341;26;20510;-65
2024/05/02 13:20:39;;;;;;;10.82;8.45;;;;;;;;;;5277070;26;20002;-65
2024/05/02 13:23:05;;;;;;;10.57;7.70;;;;;;;;;;5266058;27;20507;-66
2024/05/02 13:25:30;;;;;;;14.32;7.90;;;;;;;;;;5294967;26;20001;-65
2024/05/02 13:27:55;;;;;;;10.25;8.40;;;;;;;;;;5298843;26;20001;-66
2024/05/02 13:30:21;;;;;;;11.25;9.10;;;;;;;;;;5295745;26;20021;-66
2024/05/02 13:32:46;;;;;;;10.98;8.57;;;;;;;;;;5271617;26;20579;-65
2024/05/02 13:35:11;;;;;;;10.90;8.50;;;;;;;;;;5259111;26;20001;-65
2024/05/02 13:37:37;;;;;;;13.05;7.90;;;;;;;;;;5298774;26;20005;-66
2024/05/02 13:40:02;;;;;;;10.23;7.57;;;;;;;;;;5299671;26;20012;-65
2024/05/02 13:42:29;;;;;;;9.35;7.00;;;;;;;;;;5307403;26;20006;-66
2024/05/02 13:44:54;;;;;;;10.48;6.40;;;;;;;;;;5296331;26;20033;-65
2024/05/02 13:47:19;;;;;;;8.68;7.30;;;;;;;;;;5314685;26;19998;-65
2024/05/02 13:49:44;;;;;;;9.73;7.05;;;;;;;;;;5299189;26;20526;-65
2024/05/02 13:52:10;;;;;;;9.52;7.43;;;;;;;;;;5292987;26;20356;-65
2024/05/02 13:54:36;;;;;;;11.68;8.82;;;;;;;;;;5297575;26;19993;-66
2024/05/02 13:57:04;;;;;;;19.38;10.68;;;;;;;;;;5298692;26;20129;-66
2024/05/02 13:59:29;;;;;;;13.68;9.40;;;;;;;;;;5281598;27;19998;-65
2024/05/02 14:01:55;;;;;;;12.93;9.77;;;;;;;;;;5297069;27;20058;-66
2024/05/02 14:04:20;;;;;;;14.88;10.05;;;;;;;;;;5280114;26;20037;-66
2024/05/02 14:06:46;;;;;;;13.90;10.07;;;;;;;;;;5297611;26;20521;-66